Thornville, Ohio
Current Conditions -  °F | °C
As of 10:54 AM on Wednesday 28 Jan 2015 (Local Time) from KVTA Reporting Station
Haze Haze  
Wind Chill: 16°   Ceiling: Unl
Heat Index: 16°   Visibility: 5mi
Dew Point: 12°   Wind: 0mph
Humidity: 84%   Direction: NA
Pressure: 30.38"   Gusts: NA
Location:  39.9°N, 82.42°W
Report Text: KVTA 281554Z AUTO 00000KT 5SM BR CLR M09/M11 A3038 RMK AO2 SLP306 T10891111
Loading
Personal Weather Stations






























Interactive Weather Map New forecast layout! Learn more

10-Day Weather Forecast

Advertisements
Track Severe Weather on mobile